createdAt,value
2022-12-25T00:00:55.657Z,10.27
2022-12-25T00:03:22.781Z,10.85
2022-12-25T00:05:49.661Z,10.43
2022-12-25T00:08:16.403Z,10.90
2022-12-25T00:10:45.483Z,9.75
2022-12-25T00:13:12.544Z,11.15
2022-12-25T00:15:40.754Z,9.80
2022-12-25T00:18:07.630Z,11.23
2022-12-25T00:20:34.422Z,10.40
2022-12-25T00:25:47.812Z,10.77
2022-12-25T00:31:05.308Z,10.80
2022-12-25T00:33:34.078Z,10.35
2022-12-25T00:36:01.939Z,11.20
2022-12-25T00:38:29.115Z,9.80
2022-12-25T00:40:55.888Z,10.85
2022-12-25T00:43:22.944Z,11.15
2022-12-25T00:46:01.672Z,10.65
2022-12-25T00:51:16.333Z,9.80
2022-12-25T00:53:43.139Z,10.03
2022-12-25T00:56:10.653Z,8.93
2022-12-25T00:58:37.440Z,9.75
2022-12-25T01:01:04.384Z,6.70
2022-12-25T01:03:31.229Z,7.40
2022-12-25T01:06:01.188Z,11.73
2022-12-25T01:11:16.723Z,11.90
2022-12-25T01:13:43.494Z,12.15
2022-12-25T01:16:11.416Z,12.23
2022-12-25T01:18:38.823Z,10.57
2022-12-25T01:21:07.472Z,11.83
2022-12-25T01:26:23.619Z,10.25
2022-12-25T01:31:37.761Z,10.88
2022-12-25T01:36:51.196Z,8.30
2022-12-25T01:42:04.666Z,11.15
2022-12-25T01:47:24.016Z,10.10
2022-12-25T01:52:37.775Z,8.52
2022-12-25T01:55:05.394Z,10.93
2022-12-25T01:57:35.986Z,8.23
2022-12-25T02:00:09.739Z,12.20
2022-12-25T02:02:37.283Z,11.20
2022-12-25T02:05:10.137Z,12.03
2022-12-25T02:07:38.262Z,9.27
2022-12-25T02:10:05.511Z,11.40
2022-12-25T02:12:34.668Z,10.30
2022-12-25T02:18:16.298Z,13.88
2022-12-25T02:20:49.871Z,13.40
2022-12-25T02:24:14.141Z,12.82
2022-12-25T02:27:04.972Z,13.35
2022-12-25T02:32:51.674Z,14.63
2022-12-25T02:35:25.811Z,16.67
2022-12-25T02:38:07.640Z,15.13
2022-12-25T02:40:51.630Z,15.40
2022-12-25T02:43:28.048Z,14.00
2022-12-25T02:46:02.807Z,14.38
2022-12-25T02:48:36.873Z,14.20
2022-12-25T02:51:08.212Z,15.73
2022-12-25T02:53:36.030Z,13.18
2022-12-25T02:56:03.387Z,15.25
2022-12-25T02:58:34.022Z,15.27
2022-12-25T03:01:11.940Z,17.00
2022-12-25T03:06:32.128Z,15.20
2022-12-25T03:09:02.345Z,18.88
2022-12-25T03:11:29.185Z,14.40
2022-12-25T03:14:06.022Z,18.90
2022-12-25T03:16:32.879Z,14.73
2022-12-25T03:19:00.136Z,14.20
2022-12-25T03:21:27.007Z,12.95
2022-12-25T03:24:00.204Z,13.17
2022-12-25T03:26:27.314Z,17.17
2022-12-25T03:28:54.076Z,15.33
2022-12-25T03:31:43.220Z,13.95
2022-12-25T03:33:47.885Z,0
2022-12-25T03:34:13.033Z,12.75
2022-12-25T03:36:51.492Z,11.57
2022-12-25T03:39:33.072Z,11.07
2022-12-25T03:42:02.376Z,11.52
2022-12-25T03:44:36.084Z,11.40
2022-12-25T03:47:15.649Z,11.40
2022-12-25T03:50:09.393Z,10.82
2022-12-25T03:52:38.337Z,11.60
2022-12-25T03:55:10.281Z,10.80
2022-12-25T03:57:37.045Z,10.85
2022-12-25T04:00:04.559Z,11.35
2022-12-25T04:02:31.484Z,12.70
2022-12-25T04:04:58.306Z,12.68
2022-12-25T04:07:25.151Z,12.93
2022-12-25T04:09:51.958Z,13.60
2022-12-25T04:12:18.720Z,13.70
2022-12-25T04:14:45.469Z,13.07
2022-12-25T04:17:12.228Z,13.10
2022-12-25T04:19:39.007Z,13.55
2022-12-25T04:22:05.836Z,12.90
2022-12-25T04:24:32.606Z,12.23
2022-12-25T04:26:59.368Z,12.75
2022-12-25T04:29:26.116Z,13.30
2022-12-25T04:31:52.894Z,13.00
2022-12-25T04:34:19.694Z,13.10
2022-12-25T04:36:46.416Z,12.70
2022-12-25T04:41:39.961Z,13.35
2022-12-25T04:44:06.694Z,13.40
2022-12-25T04:49:20.181Z,13.10
2022-12-25T04:54:13.625Z,11.98
2022-12-25T04:56:45.606Z,12.40
2022-12-25T05:01:59.772Z,13.10
2022-12-25T05:07:13.323Z,13.65
2022-12-25T05:09:40.035Z,19.55
2022-12-25T05:12:06.783Z,15.93
2022-12-25T05:14:33.635Z,18.35
2022-12-25T05:17:00.420Z,15.32
2022-12-25T05:19:27.299Z,15.02
2022-12-25T05:21:54.700Z,16.55
2022-12-25T05:24:26.331Z,16.08
2022-12-25T05:26:53.355Z,16.10
2022-12-25T05:29:20.297Z,14.55
2022-12-25T05:31:47.130Z,18.00
2022-12-25T05:34:13.913Z,18.20
2022-12-25T05:36:40.736Z,16.60
2022-12-25T05:39:07.458Z,16.35
2022-12-25T05:41:35.023Z,15.05
2022-12-25T05:44:02.091Z,16.17
2022-12-25T05:46:28.935Z,13.90
2022-12-25T05:48:55.743Z,17.30
2022-12-25T05:51:22.526Z,17.15
2022-12-25T05:53:49.289Z,15.90
2022-12-25T05:56:16.031Z,14.63
2022-12-25T05:58:42.835Z,20.92
2022-12-25T06:01:15.454Z,17.30
2022-12-25T06:03:42.520Z,19.13
2022-12-25T06:06:10.003Z,18.05
2022-12-25T06:08:36.820Z,15.55
2022-12-25T06:11:05.523Z,19.17
2022-12-25T06:13:33.778Z,22.48
2022-12-25T06:16:07.414Z,21.25
2022-12-25T06:18:38.591Z,17.52
2022-12-25T06:21:09.595Z,18.38
2022-12-25T06:26:24.080Z,24.77
2022-12-25T06:31:37.561Z,21.00
2022-12-25T06:34:04.393Z,17.55
2022-12-25T06:36:31.156Z,19.42
2022-12-25T06:39:01.033Z,19.13
2022-12-25T06:44:15.795Z,19.52
2022-12-25T06:46:42.568Z,18.13
2022-12-25T06:49:10.427Z,18.50
2022-12-25T06:51:37.249Z,20.23
2022-12-25T06:54:04.505Z,18.13
2022-12-25T06:56:32.529Z,20.05
2022-12-25T06:59:07.540Z,19.40
2022-12-25T07:01:50.746Z,17.67
2022-12-25T07:04:25.694Z,20.83
2022-12-25T07:09:19.632Z,18.63
2022-12-25T07:11:46.438Z,18.02
2022-12-25T07:14:24.491Z,17.17
2022-12-25T07:16:51.840Z,16.63
2022-12-25T07:19:18.675Z,16.53
2022-12-25T07:21:45.469Z,16.90
2022-12-25T07:24:12.238Z,17.00
2022-12-25T07:26:38.974Z,16.97
2022-12-25T07:29:05.751Z,16.77
2022-12-25T07:31:32.565Z,15.75
2022-12-25T07:33:59.345Z,16.47
2022-12-25T07:39:13.116Z,15.73
2022-12-25T07:44:06.718Z,16.17
2022-12-25T07:46:33.496Z,16.08
2022-12-25T07:48:17.855Z,0
2022-12-25T07:49:00.530Z,16.58
2022-12-25T07:49:21.312Z,0
2022-12-25T07:54:14.189Z,16.88
2022-12-25T07:56:40.950Z,16.52
2022-12-25T07:59:07.713Z,16.63
2022-12-25T08:01:34.910Z,16.52
2022-12-25T08:04:02.436Z,16.73
2022-12-25T08:06:35.369Z,17.30
2022-12-25T08:09:08.573Z,16.40
2022-12-25T08:14:22.569Z,18.50
2022-12-25T08:19:36.050Z,16.80
2022-12-25T08:22:02.925Z,17.10
2022-12-25T08:24:29.732Z,17.60
2022-12-25T08:26:56.555Z,18.95
2022-12-25T08:29:23.286Z,18.02
2022-12-25T08:31:50.082Z,18.83
2022-12-25T08:34:16.939Z,18.23
2022-12-25T08:36:43.694Z,17.23
2022-12-25T08:41:57.109Z,16.65
2022-12-25T08:47:10.543Z,17.35
2022-12-25T08:49:37.457Z,16.55
2022-12-25T08:54:31.192Z,18.23
2022-12-25T08:57:02.687Z,17.77
2022-12-25T08:59:33.633Z,18.50
2022-12-25T09:02:00.476Z,18.23
2022-12-25T09:04:27.421Z,17.80
2022-12-25T09:09:20.969Z,16.83
2022-12-25T09:11:49.261Z,16.40
2022-12-25T09:17:02.723Z,18.70
2022-12-25T09:22:16.182Z,15.05
2022-12-25T09:27:09.764Z,13.73
2022-12-25T09:29:36.599Z,12.27
2022-12-25T09:32:03.417Z,12.10
2022-12-25T09:34:30.232Z,12.32
2022-12-25T09:36:57.025Z,11.20
2022-12-25T09:39:23.921Z,12.05
2022-12-25T09:44:34.010Z,10.60
2022-12-25T09:50:50.156Z,10.52
2022-12-25T09:53:23.693Z,10.90
2022-12-25T09:56:06.598Z,11.68
2022-12-25T09:58:34.231Z,11.70
2022-12-25T10:01:19.162Z,11.20
2022-12-25T10:07:30.065Z,11.45
2022-12-25T10:10:03.318Z,12.27
2022-12-25T10:12:41.759Z,11.65
2022-12-25T10:15:58.985Z,11.52
2022-12-25T10:19:07.338Z,10.00
2022-12-25T10:21:34.283Z,10.63
2022-12-25T10:24:20.636Z,10.82
2022-12-25T10:26:48.815Z,11.40
2022-12-25T10:29:18.909Z,11.20
2022-12-25T10:34:37.107Z,11.00
2022-12-25T10:39:30.727Z,13.38
2022-12-25T10:42:05.774Z,12.63
2022-12-25T10:44:32.553Z,10.90
2022-12-25T10:47:01.046Z,11.25
2022-12-25T10:49:38.399Z,11.40
2022-12-25T10:52:24.088Z,11.20
2022-12-25T10:54:51.330Z,10.93
2022-12-25T10:57:21.213Z,11.20
2022-12-25T10:59:56.704Z,11.40
2022-12-25T11:02:34.695Z,11.77
2022-12-25T11:05:08.018Z,10.80
2022-12-25T11:07:37.004Z,11.77
2022-12-25T11:10:19.310Z,11.10
2022-12-25T11:12:46.730Z,11.20
2022-12-25T11:15:42.274Z,11.85
2022-12-25T11:18:27.532Z,12.80
2022-12-25T11:20:56.673Z,11.80
2022-12-25T11:23:24.937Z,11.85
2022-12-25T11:25:58.962Z,14.00
2022-12-25T11:28:28.289Z,14.40
2022-12-25T11:31:17.074Z,12.80
2022-12-25T11:33:52.603Z,11.60
2022-12-25T11:36:31.598Z,12.68
2022-12-25T11:42:00.907Z,11.30
2022-12-25T11:44:41.304Z,11.87
2022-12-25T11:47:19.775Z,11.65
2022-12-25T11:50:00.014Z,13.90
2022-12-25T11:52:33.311Z,13.90
2022-12-25T11:55:15.419Z,11.60
2022-12-25T11:57:45.606Z,11.80
2022-12-25T12:00:15.544Z,12.13
2022-12-25T12:02:56.443Z,12.13
2022-12-25T12:05:59.829Z,11.88
2022-12-25T12:08:26.652Z,11.73
2022-12-25T12:13:45.928Z,12.10
2022-12-25T12:16:12.750Z,11.80
2022-12-25T12:18:40.438Z,12.37
2022-12-25T12:21:22.927Z,11.90
2022-12-25T12:24:00.416Z,12.48
2022-12-25T12:26:29.524Z,11.68
2022-12-25T12:29:00.861Z,12.85
2022-12-25T12:31:59.696Z,13.75
2022-12-25T12:37:27.047Z,12.20
2022-12-25T12:42:46.376Z,12.30
2022-12-25T12:45:34.725Z,12.77
2022-12-25T12:48:02.473Z,14.27
2022-12-25T12:50:47.396Z,14.27
2022-12-25T12:53:23.349Z,14.20
2022-12-25T12:55:51.768Z,13.75
2022-12-25T12:58:31.987Z,14.27
2022-12-25T13:01:18.888Z,14.10
2022-12-25T13:04:06.382Z,14.80
2022-12-25T13:06:47.866Z,14.75
2022-12-25T13:09:41.033Z,15.35
2022-12-25T13:12:08.798Z,14.90
2022-12-25T13:14:36.105Z,15.23
2022-12-25T13:17:07.842Z,15.75
2022-12-25T13:19:36.713Z,16.03
2022-12-25T13:25:02.735Z,15.75
2022-12-25T13:27:32.151Z,16.23
2022-12-25T13:29:59.585Z,16.60
2022-12-25T13:32:32.956Z,15.70
2022-12-25T13:35:00.630Z,16.50
2022-12-25T13:37:30.332Z,16.13
2022-12-25T13:42:49.991Z,15.10
2022-12-25T13:45:24.850Z,16.08
2022-12-25T13:47:55.501Z,16.52
2022-12-25T13:50:29.248Z,15.60
2022-12-25T13:52:58.385Z,15.00
2022-12-25T13:55:27.862Z,15.82
2022-12-25T14:00:50.115Z,17.90
2022-12-25T14:03:42.162Z,16.98
2022-12-25T14:06:20.164Z,21.83
2022-12-25T14:08:48.091Z,18.23
2022-12-25T14:11:16.807Z,16.30
2022-12-25T14:16:33.669Z,16.00
2022-12-25T14:21:55.787Z,15.80
2022-12-25T14:27:19.445Z,16.05
2022-12-25T14:29:48.347Z,16.27
2022-12-25T14:32:20.771Z,16.40
2022-12-25T14:34:51.359Z,16.70
2022-12-25T14:37:27.297Z,16.90
2022-12-25T14:40:06.864Z,16.25
2022-12-25T14:42:34.923Z,15.63
2022-12-25T14:45:01.646Z,16.00
2022-12-25T14:47:29.165Z,15.43
2022-12-25T14:49:56.241Z,16.48
2022-12-25T14:52:27.768Z,16.17
2022-12-25T14:57:49.557Z,18.20
2022-12-25T15:00:24.745Z,16.90
2022-12-25T15:02:54.411Z,17.13
2022-12-25T15:05:30.961Z,17.57
2022-12-25T15:08:06.346Z,16.73
2022-12-25T15:16:19.541Z,17.48
2022-12-25T15:18:47.345Z,16.85
2022-12-25T15:21:15.929Z,17.35
2022-12-25T15:23:42.847Z,15.40
2022-12-25T15:26:13.623Z,16.08
2022-12-25T15:31:30.520Z,16.38
2022-12-25T15:33:59.279Z,16.15
2022-12-25T15:36:26.782Z,16.17
2022-12-25T15:38:54.236Z,16.13
2022-12-25T15:41:27.573Z,16.65
2022-12-25T15:46:41.328Z,16.30
2022-12-25T15:51:56.981Z,18.03
2022-12-25T15:57:20.868Z,19.38
2022-12-25T15:59:47.854Z,21.63
2022-12-25T16:02:17.528Z,19.00
2022-12-25T16:04:44.628Z,15.60
2022-12-25T16:07:29.400Z,14.50
2022-12-25T16:09:56.162Z,15.95
2022-12-25T16:15:12.673Z,16.17
2022-12-25T16:20:26.496Z,17.50
2022-12-25T16:22:53.253Z,16.70
2022-12-25T16:25:20.705Z,17.73
2022-12-25T16:27:47.757Z,18.25
2022-12-25T16:30:16.621Z,17.85
2022-12-25T16:32:44.819Z,18.00
2022-12-25T16:35:12.045Z,18.55
2022-12-25T16:37:39.406Z,17.90
2022-12-25T16:40:07.878Z,18.40
2022-12-25T16:42:34.653Z,17.63
2022-12-25T16:45:01.497Z,18.80
2022-12-25T16:47:28.273Z,19.50
2022-12-25T16:49:55.048Z,19.10
2022-12-25T16:52:21.811Z,19.27
2022-12-25T16:54:48.584Z,18.38
2022-12-25T16:57:15.329Z,18.92
2022-12-25T16:59:42.067Z,18.80
2022-12-25T17:02:14.230Z,19.00
2022-12-25T17:04:41.099Z,19.52
2022-12-25T17:07:07.874Z,19.15
2022-12-25T17:09:40.343Z,19.00
2022-12-25T17:12:10.583Z,19.10
2022-12-25T17:14:37.393Z,19.03
2022-12-25T17:19:50.850Z,18.35
2022-12-25T17:25:04.593Z,18.08
2022-12-25T17:30:18.936Z,18.10
2022-12-25T17:32:45.701Z,18.23
2022-12-25T17:35:12.516Z,18.30
2022-12-25T17:37:39.235Z,21.80
2022-12-25T17:40:06.724Z,19.85
2022-12-25T17:42:33.518Z,22.73
2022-12-25T17:45:00.282Z,24.90
2022-12-25T17:47:27.107Z,20.23
2022-12-25T17:52:40.510Z,19.20
2022-12-25T17:55:07.669Z,19.60
2022-12-25T17:57:34.532Z,20.58
2022-12-25T18:00:01.307Z,20.35
2022-12-25T18:02:28.295Z,19.55
2022-12-25T18:04:55.147Z,20.42
2022-12-25T18:07:21.885Z,19.30
2022-12-25T18:09:48.700Z,22.88
2022-12-25T18:12:15.506Z,21.83
2022-12-25T18:14:42.279Z,21.60
2022-12-25T18:17:09.168Z,21.00
2022-12-25T18:19:35.920Z,20.38
2022-12-25T18:22:02.690Z,20.90
2022-12-25T18:24:29.452Z,20.90
2022-12-25T18:26:56.232Z,20.60
2022-12-25T18:29:23.038Z,19.67
2022-12-25T18:31:49.839Z,19.77
2022-12-25T18:34:16.625Z,21.15
2022-12-25T18:36:43.408Z,20.13
2022-12-25T18:39:13.126Z,20.90
2022-12-25T18:41:39.910Z,22.27
2022-12-25T18:44:06.652Z,19.60
2022-12-25T18:46:33.435Z,19.02
2022-12-25T18:49:00.230Z,17.70
2022-12-25T18:51:34.758Z,17.20
2022-12-25T18:56:53.235Z,17.20
2022-12-25T19:02:07.773Z,16.30
2022-12-25T19:07:22.775Z,21.95
2022-12-25T19:09:50.046Z,17.33
2022-12-25T19:12:16.943Z,15.15
2022-12-25T19:14:47.355Z,15.45
2022-12-25T19:20:01.992Z,19.17
2022-12-25T19:22:28.736Z,16.90
2022-12-25T19:24:55.515Z,15.70
2022-12-25T19:27:22.275Z,16.00
2022-12-25T19:29:49.018Z,19.40
2022-12-25T19:32:15.797Z,20.55
2022-12-25T19:34:42.585Z,19.00
2022-12-25T19:37:09.406Z,15.63
2022-12-25T19:39:36.149Z,15.95
2022-12-25T19:42:02.943Z,15.27
2022-12-25T19:44:29.702Z,15.38
2022-12-25T19:46:56.591Z,15.60
2022-12-25T19:49:23.348Z,14.93
2022-12-25T19:51:50.111Z,15.10
2022-12-25T19:56:44.283Z,15.05
2022-12-25T19:59:12.401Z,15.70
2022-12-25T20:01:39.445Z,15.37
2022-12-25T20:04:07.791Z,14.80
2022-12-25T20:06:36.717Z,14.60
2022-12-25T20:11:53.270Z,12.88
2022-12-25T20:14:20.143Z,13.63
2022-12-25T20:16:47.066Z,17.43
2022-12-25T20:19:14.459Z,13.90
2022-12-25T20:21:41.581Z,13.60
2022-12-25T20:24:09.155Z,12.77
2022-12-25T20:26:36.815Z,13.05
2022-12-25T20:29:04.336Z,11.93
2022-12-25T20:31:33.507Z,12.23
2022-12-25T20:34:05.767Z,11.90
2022-12-25T20:36:36.732Z,11.70
2022-12-25T20:39:08.723Z,11.57
2022-12-25T20:44:22.311Z,12.10
2022-12-25T20:46:49.136Z,17.00
2022-12-25T20:49:15.901Z,20.42
2022-12-25T20:51:42.687Z,17.10
2022-12-25T20:54:10.146Z,14.95
2022-12-25T20:56:37.185Z,12.57
2022-12-25T20:59:03.987Z,12.45
2022-12-25T21:01:31.158Z,11.82
2022-12-25T21:06:45.191Z,11.98
2022-12-25T21:11:58.695Z,11.90
2022-12-25T21:14:25.490Z,10.98
2022-12-25T21:16:52.272Z,10.33
2022-12-25T21:19:19.089Z,11.30
2022-12-25T21:21:45.837Z,12.05
2022-12-25T21:24:12.673Z,11.07
2022-12-25T21:26:44.462Z,11.20
2022-12-25T21:32:01.183Z,10.68
2022-12-25T21:34:29.745Z,10.40
2022-12-25T21:36:56.490Z,11.00
2022-12-25T21:39:23.209Z,10.27
2022-12-25T21:44:39.314Z,16.90
2022-12-25T21:47:06.080Z,15.80
2022-12-25T21:49:32.876Z,12.45
2022-12-25T21:51:59.661Z,10.30
2022-12-25T21:54:26.421Z,10.60
2022-12-25T21:56:53.232Z,10.48
2022-12-25T21:59:21.726Z,10.85
2022-12-25T22:01:49.876Z,10.73
2022-12-25T22:07:05.172Z,9.68
2022-12-25T22:12:21.370Z,9.48
2022-12-25T22:14:51.325Z,9.73
2022-12-25T22:17:40.017Z,10.47
2022-12-25T22:20:09.878Z,10.47
2022-12-25T22:22:36.687Z,10.80
2022-12-25T22:25:05.498Z,11.02
2022-12-25T22:27:34.724Z,11.17
2022-12-25T22:30:01.863Z,10.80
2022-12-25T22:32:29.008Z,12.35
2022-12-25T22:34:55.779Z,12.45
2022-12-25T22:37:22.814Z,11.40
2022-12-25T22:39:49.671Z,12.80
2022-12-25T22:42:16.863Z,12.15
2022-12-25T22:44:43.912Z,12.90
2022-12-25T22:47:10.676Z,13.98
2022-12-25T22:52:24.538Z,13.80
2022-12-25T22:54:51.327Z,13.43
2022-12-25T22:57:18.107Z,12.55
2022-12-25T22:59:44.872Z,13.82
2022-12-25T23:02:11.695Z,15.75
2022-12-25T23:04:38.548Z,13.70
2022-12-25T23:07:05.445Z,13.98
2022-12-25T23:09:32.182Z,14.57
2022-12-25T23:11:59.300Z,16.70
2022-12-25T23:14:26.665Z,13.20
2022-12-25T23:16:53.514Z,13.80
2022-12-25T23:19:20.285Z,15.52
2022-12-25T23:21:47.086Z,12.70
2022-12-25T23:24:14.017Z,12.40
2022-12-25T23:26:40.765Z,13.23
2022-12-25T23:29:07.496Z,12.50
2022-12-25T23:31:36.582Z,13.90
2022-12-25T23:34:05.087Z,13.45
2022-12-25T23:36:32.064Z,13.35
2022-12-25T23:39:04.727Z,20.83
2022-12-25T23:41:33.866Z,12.30
2022-12-25T23:44:00.592Z,13.10
2022-12-25T23:46:27.537Z,12.82
2022-12-25T23:48:54.356Z,14.40
2022-12-25T23:51:21.234Z,17.08
2022-12-25T23:53:48.030Z,15.53
2022-12-25T23:56:14.909Z,27.05
2022-12-25T23:58:41.808Z,31.13
